Phoenix, Arizona
Current Conditions -  °F | °C
As of 4:51 PM on Wednesday 26 Nov 2014 (Local Time) from KPHX Reporting Station
Clear Clear  
Wind Chill: 72°   Ceiling: Unl
Heat Index: 72°   Visibility: 10mi
Dew Point: 15°   Wind: 3mph
Humidity: 11%   Direction: 310°NW
Pressure: 30.16"   Gusts: NA
Location:  33.45°N, 112.08°W
Report Text: KPHX 262351Z 31003KT 10SM CLR 22/M09 A3016 RMK AO2 SLP206 T02221094 10233 20156 56011
Loading
Personal Weather Stations






























Interactive Weather Map New forecast layout! Learn more

10-Day Weather Forecast

Advertisements
Track Severe Weather on mobile